createdAt,value
2022-11-07T00:00:26.275Z,11.80
2022-11-07T00:02:54.425Z,11.80
2022-11-07T00:05:23.731Z,11.80
2022-11-07T00:07:51.752Z,11.70
2022-11-07T00:10:19.691Z,11.70
2022-11-07T00:12:47.915Z,11.70
2022-11-07T00:15:15.806Z,11.70
2022-11-07T00:17:43.701Z,11.70
2022-11-07T00:20:12.571Z,11.70
2022-11-07T00:22:41.817Z,11.70
2022-11-07T00:25:10.370Z,11.70
2022-11-07T00:27:38.426Z,11.70
2022-11-07T00:30:07.608Z,11.60
2022-11-07T00:32:35.482Z,11.50
2022-11-07T00:35:03.514Z,11.50
2022-11-07T00:37:31.671Z,11.50
2022-11-07T00:40:00.880Z,11.40
2022-11-07T00:42:28.912Z,11.40
2022-11-07T00:44:57.011Z,11.40
2022-11-07T00:47:24.887Z,11.40
2022-11-07T00:49:52.768Z,11.30
2022-11-07T00:52:20.829Z,11.40
2022-11-07T00:54:48.745Z,11.30
2022-11-07T00:57:17.995Z,11.20
2022-11-07T00:59:46.135Z,11.30
2022-11-07T01:02:14.095Z,11.20
2022-11-07T01:05:00.090Z,11.30
2022-11-07T01:07:28.031Z,11.40
2022-11-07T01:09:55.943Z,11.40
2022-11-07T01:12:25.432Z,11.40
2022-11-07T01:14:53.331Z,11.50
2022-11-07T01:17:21.377Z,11.60
2022-11-07T01:19:49.369Z,11.70
2022-11-07T01:22:17.392Z,11.70
2022-11-07T01:24:45.403Z,11.80
2022-11-07T01:27:13.398Z,11.80
2022-11-07T01:29:42.776Z,12.00
2022-11-07T01:32:10.618Z,12.00
2022-11-07T01:34:38.760Z,12.10
2022-11-07T01:37:06.634Z,12.20
2022-11-07T01:39:34.932Z,12.10
2022-11-07T01:42:03.217Z,12.20
2022-11-07T01:45:02.623Z,12.20
2022-11-07T01:47:36.492Z,12.20
2022-11-07T01:50:06.769Z,12.10
2022-11-07T01:52:37.294Z,12.10
2022-11-07T01:55:09.629Z,12.10
2022-11-07T01:57:42.620Z,12.10
2022-11-07T02:00:16.693Z,12.10
2022-11-07T02:02:46.417Z,12.00
2022-11-07T02:05:18.047Z,12.10
2022-11-07T02:07:46.201Z,12.10
2022-11-07T02:10:15.321Z,12.10
2022-11-07T02:12:43.771Z,12.20
2022-11-07T02:15:13.697Z,12.20
2022-11-07T02:17:42.165Z,12.20
2022-11-07T02:20:11.428Z,12.10
2022-11-07T02:22:47.296Z,12.10
2022-11-07T02:25:19.596Z,12.10
2022-11-07T02:27:50.662Z,12.10
2022-11-07T02:30:20.842Z,12.20
2022-11-07T02:32:49.266Z,12.20
2022-11-07T02:35:39.814Z,12.10
2022-11-07T02:38:13.296Z,12.20
2022-11-07T02:40:44.689Z,12.00
2022-11-07T02:43:14.417Z,11.90
2022-11-07T02:45:45.598Z,11.90
2022-11-07T02:48:14.049Z,12.00
2022-11-07T02:50:42.371Z,12.00
2022-11-07T02:53:10.446Z,12.00
2022-11-07T02:55:38.694Z,12.00
2022-11-07T02:58:08.109Z,11.90
2022-11-07T03:00:36.310Z,11.90
2022-11-07T03:03:04.321Z,12.00
2022-11-07T03:05:32.308Z,11.90
2022-11-07T03:08:00.497Z,11.90
2022-11-07T03:10:28.338Z,11.80
2022-11-07T03:12:56.435Z,11.80
2022-11-07T03:15:25.681Z,11.70
2022-11-07T03:17:53.844Z,11.70
2022-11-07T03:20:21.739Z,11.60
2022-11-07T03:22:49.766Z,11.60
2022-11-07T03:25:17.895Z,11.50
2022-11-07T03:27:49.132Z,11.50
2022-11-07T03:30:18.057Z,11.40
2022-11-07T03:32:47.323Z,11.40
2022-11-07T03:35:15.368Z,11.40
2022-11-07T03:37:47.034Z,11.30
2022-11-07T03:40:15.120Z,11.30
2022-11-07T03:42:43.901Z,11.30
2022-11-07T03:45:13.568Z,11.20
2022-11-07T03:47:42.957Z,11.10
2022-11-07T03:50:14.624Z,11.10
2022-11-07T03:52:43.107Z,11.10
2022-11-07T03:55:12.270Z,11.10
2022-11-07T03:57:40.334Z,11.00
2022-11-07T04:00:09.764Z,11.10
2022-11-07T04:02:37.897Z,11.00
2022-11-07T04:05:06.658Z,11.00
2022-11-07T04:07:36.064Z,11.00
2022-11-07T04:10:04.024Z,10.90
2022-11-07T04:12:49.677Z,11.00
2022-11-07T04:15:35.599Z,10.90
2022-11-07T04:18:03.813Z,10.90
2022-11-07T04:20:31.824Z,10.90
2022-11-07T04:23:01.257Z,10.90
2022-11-07T04:25:46.672Z,10.80
2022-11-07T04:28:16.352Z,10.80
2022-11-07T04:30:44.618Z,10.80
2022-11-07T04:33:12.855Z,10.70
2022-11-07T04:35:40.937Z,10.70
2022-11-07T04:38:10.336Z,10.70
2022-11-07T04:40:38.378Z,10.60
2022-11-07T04:43:09.271Z,10.60
2022-11-07T04:45:37.802Z,10.60
2022-11-07T04:48:06.760Z,10.60
2022-11-07T04:50:34.835Z,10.50
2022-11-07T04:53:03.022Z,10.50
2022-11-07T04:55:32.327Z,10.50
2022-11-07T04:58:00.449Z,10.40
2022-11-07T05:00:28.378Z,10.40
2022-11-07T05:02:56.320Z,10.40
2022-11-07T05:05:24.407Z,10.30
2022-11-07T05:07:52.901Z,10.30
2022-11-07T05:10:23.445Z,10.30
2022-11-07T05:12:53.725Z,10.20
2022-11-07T05:15:22.249Z,10.30
2022-11-07T05:17:50.300Z,10.20
2022-11-07T05:20:28.482Z,10.30
2022-11-07T05:23:15.100Z,10.30
2022-11-07T05:25:45.094Z,10.30
2022-11-07T05:28:16.836Z,10.30
2022-11-07T05:30:46.020Z,10.30
2022-11-07T05:33:17.032Z,10.40
2022-11-07T05:35:46.245Z,10.30
2022-11-07T05:38:14.465Z,10.40
2022-11-07T05:40:42.976Z,10.20
2022-11-07T05:43:13.511Z,10.30
2022-11-07T05:45:43.253Z,10.30
2022-11-07T05:48:12.823Z,10.40
2022-11-07T05:50:41.606Z,10.20
2022-11-07T05:53:09.677Z,10.20
2022-11-07T05:55:37.587Z,10.20
2022-11-07T05:58:10.768Z,10.20
2022-11-07T06:00:38.821Z,10.20
2022-11-07T06:03:08.477Z,10.20
2022-11-07T06:05:37.985Z,10.20
2022-11-07T06:08:06.192Z,10.20
2022-11-07T06:10:34.605Z,10.10
2022-11-07T06:13:06.011Z,10.20
2022-11-07T06:15:36.654Z,10.10
2022-11-07T06:18:06.488Z,10.10
2022-11-07T06:20:36.693Z,10.20
2022-11-07T06:23:06.697Z,10.10
2022-11-07T06:25:35.274Z,10.20
2022-11-07T06:28:05.498Z,10.20
2022-11-07T06:30:34.115Z,10.20
2022-11-07T06:33:02.977Z,10.20
2022-11-07T06:35:31.337Z,10.20
2022-11-07T06:38:03.378Z,10.30
2022-11-07T06:40:31.439Z,10.20
2022-11-07T06:43:06.734Z,10.40
2022-11-07T06:45:36.292Z,10.30
2022-11-07T06:48:04.346Z,10.20
2022-11-07T06:50:32.487Z,10.30
2022-11-07T06:53:05.358Z,10.30
2022-11-07T06:55:34.586Z,10.40
2022-11-07T06:58:03.293Z,10.50
2022-11-07T07:00:33.454Z,10.60
2022-11-07T07:03:01.417Z,10.60
2022-11-07T07:05:29.742Z,10.70
2022-11-07T07:07:57.729Z,11.10
2022-11-07T07:10:27.118Z,12.00
2022-11-07T07:12:56.689Z,13.00
2022-11-07T07:15:25.179Z,13.80
2022-11-07T07:17:53.205Z,14.40
2022-11-07T07:20:21.057Z,15.00
2022-11-07T07:22:53.374Z,15.60
2022-11-07T07:25:27.518Z,16.30
2022-11-07T07:27:55.720Z,16.90
2022-11-07T07:30:23.656Z,17.20
2022-11-07T07:32:52.266Z,17.10
2022-11-07T07:35:20.672Z,16.70
2022-11-07T07:37:51.136Z,17.00
2022-11-07T07:40:19.761Z,17.50
2022-11-07T07:42:49.345Z,18.00
2022-11-07T07:45:17.972Z,17.90
2022-11-07T07:47:46.176Z,17.40
2022-11-07T07:50:14.925Z,17.20
2022-11-07T07:52:43.757Z,17.30
2022-11-07T07:55:11.777Z,17.30
2022-11-07T07:57:41.064Z,16.90
2022-11-07T08:00:11.890Z,16.80
2022-11-07T08:02:43.517Z,16.80
2022-11-07T08:05:13.121Z,17.10
2022-11-07T08:07:48.708Z,17.50
2022-11-07T08:10:40.731Z,18.10
2022-11-07T08:13:05.752Z,19.10
2022-11-07T08:15:36.038Z,20.30
2022-11-07T08:18:04.796Z,21.50
2022-11-07T08:20:33.454Z,22.80
2022-11-07T08:23:02.731Z,23.30
2022-11-07T22:37:40.397Z,7.60
2022-11-07T22:40:10.456Z,7.50
2022-11-07T22:42:38.451Z,7.70
2022-11-07T22:45:07.798Z,8.00
2022-11-07T22:47:35.663Z,8.20
2022-11-07T22:50:03.782Z,8.50
2022-11-07T22:52:31.857Z,8.60
2022-11-07T22:55:01.138Z,8.70
2022-11-07T22:57:29.086Z,8.90
2022-11-07T23:00:03.032Z,8.80
2022-11-07T23:02:35.268Z,9.10
2022-11-07T23:05:03.297Z,9.00
2022-11-07T23:07:31.283Z,9.20
2022-11-07T23:10:01.147Z,9.30
2022-11-07T23:12:29.175Z,9.40
2022-11-07T23:14:57.213Z,9.40
2022-11-07T23:17:25.329Z,9.50
2022-11-07T23:19:54.329Z,9.50
2022-11-07T23:22:22.741Z,9.50
2022-11-07T23:24:51.177Z,9.40
2022-11-07T23:27:20.481Z,9.50
2022-11-07T23:29:48.343Z,9.50
2022-11-07T23:32:16.608Z,9.50
2022-11-07T23:34:44.473Z,9.40
2022-11-07T23:37:14.753Z,9.50
2022-11-07T23:39:43.265Z,9.50
2022-11-07T23:42:11.790Z,9.50
2022-11-07T23:44:55.082Z,9.50
2022-11-07T23:47:43.114Z,9.50
2022-11-07T23:50:29.196Z,9.60
2022-11-07T23:52:57.221Z,9.50
2022-11-07T23:55:42.543Z,9.40
2022-11-07T23:58:27.816Z,9.30
